Time;durP1;ratioP1;P1;durP2;ratioP2;P2;SDS_P1;SDS_P2;PMS_P1;PMS_P2;Temp;Humidity;BMP_temperature;BMP_pressure;BME280_temperature;BME280_humidity;BME280_pressure;Samples;Min_cycle;Max_cycle;Signal;HPM_P1;HPM_P2
2023/02/04 00:00:04;;;;;;;2.15;1.35;;;;;;;8.41;100.00;102689.09;5012448;28;20030;-80
2023/02/04 00:02:30;;;;;;;3.25;1.60;;;;;;;8.43;100.00;102688.97;4996559;28;20565;-80
2023/02/04 00:04:56;;;;;;;4.03;2.35;;;;;;;8.47;100.00;102693.16;4996853;28;20046;-81
2023/02/04 00:07:22;;;;;;;2.58;1.67;;;;;;;8.38;100.00;102679.41;5012387;28;20087;-80
2023/02/04 00:09:50;;;;;;;6.70;2.13;;;;;;;8.38;100.00;102681.25;4996866;28;20079;-79
2023/02/04 00:12:18;;;;;;;4.78;2.15;;;;;;;8.37;100.00;102685.75;4995874;28;20065;-80
2023/02/04 00:14:43;;;;;;;3.00;1.85;;;;;;;8.44;100.00;102702.28;5012622;28;20033;-80
2023/02/04 00:17:11;;;;;;;3.58;1.50;;;;;;;8.44;100.00;102698.72;4996239;28;20030;-80
2023/02/04 00:19:40;;;;;;;6.55;2.47;;;;;;;8.41;100.00;102696.28;4996647;28;20124;-80
2023/02/04 00:22:06;;;;;;;6.10;1.90;;;;;;;8.42;100.00;102701.53;5012287;28;20034;-80
2023/02/04 00:24:37;;;;;;;2.33;1.50;;;;;;;8.41;100.00;102705.16;4980047;28;20080;-80
2023/02/04 00:27:04;;;;;;;4.07;2.05;;;;;;;8.39;100.00;102693.72;4980398;28;20026;-81
2023/02/04 00:29:30;;;;;;;8.50;2.15;;;;;;;8.42;100.00;102711.41;5013523;28;20026;-81
2023/02/04 00:31:56;;;;;;;2.47;1.30;;;;;;;8.32;100.00;102687.91;5012410;28;20049;-81
2023/02/04 00:34:22;;;;;;;2.10;1.20;;;;;;;8.42;100.00;102708.72;5012430;28;20030;-79
2023/02/04 00:36:50;;;;;;;3.97;1.38;;;;;;;8.47;100.00;102709.25;4995895;28;20044;-81
2023/02/04 00:39:16;;;;;;;2.50;1.15;;;;;;;8.44;100.00;102704.09;4980289;28;20376;-81
2023/02/04 00:41:41;;;;;;;9.30;1.00;;;;;;;8.48;100.00;102710.94;5011844;28;20395;-80
2023/02/04 00:44:13;;;;;;;3.75;1.45;;;;;;;8.43;100.00;102692.50;4994893;28;20046;-81
2023/02/04 00:46:41;;;;;;;6.38;1.23;;;;;;;8.48;100.00;102701.06;4980104;28;20061;-81
2023/02/04 00:49:09;;;;;;;1.15;0.60;;;;;;;8.49;100.00;102708.13;4994804;28;20026;-81
2023/02/04 00:51:37;;;;;;;7.15;2.05;;;;;;;8.48;100.00;102708.25;5012321;28;20468;-81
2023/02/04 00:54:03;;;;;;;4.10;1.50;;;;;;;8.47;100.00;102709.25;4998491;28;20112;-82
2023/02/04 00:56:28;;;;;;;7.10;1.48;;;;;;;8.41;100.00;102701.63;4998899;28;20036;-80
2023/02/04 00:58:57;;;;;;;1.50;0.90;;;;;;;8.43;100.00;102697.88;5014511;28;20029;-81
2023/02/04 01:01:23;;;;;;;3.92;1.65;;;;;;;8.44;100.00;102696.03;4998542;28;20030;-81
2023/02/04 01:03:49;;;;;;;2.25;1.40;;;;;;;8.41;100.00;102685.56;4998954;28;20042;-79
2023/02/04 01:06:14;;;;;;;4.65;1.48;;;;;;;8.52;100.00;102705.25;5013973;28;20073;-81
2023/02/04 01:08:40;;;;;;;2.00;1.25;;;;;;;8.37;100.00;102671.50;5031233;28;20030;-82
2023/02/04 01:11:06;;;;;;;3.80;1.70;;;;;;;8.55;100.00;102696.97;5014640;28;20487;-82
2023/02/04 01:13:34;;;;;;;4.82;1.40;;;;;;;8.54;100.00;102700.59;5014115;28;20029;-81
2023/02/04 01:16:00;;;;;;;6.88;1.20;;;;;;;8.47;100.00;102693.16;5014963;28;20181;-81
2023/02/04 01:18:25;;;;;;;3.08;1.13;;;;;;;8.51;100.00;102695.47;5014711;28;20121;-81
2023/02/04 01:20:51;;;;;;;2.28;1.30;;;;;;;8.43;100.00;102672.91;5014030;28;20030;-82
2023/02/04 01:23:17;;;;;;;1.70;1.50;;;;;;;8.59;100.00;102695.75;5014736;28;20040;-82
2023/02/04 01:25:42;;;;;;;1.52;0.70;;;;;;;8.56;100.00;102695.13;4997655;28;20049;-81
2023/02/04 01:28:08;;;;;;;2.20;1.45;;;;;;;8.53;100.00;102704.28;5014556;28;20048;-80
2023/02/04 01:30:34;;;;;;;2.78;1.33;;;;;;;8.46;100.00;102692.28;5030803;28;20030;-82
2023/02/04 01:33:00;;;;;;;7.35;1.73;;;;;;;8.37;100.00;102683.06;5013957;28;20160;-80
2023/02/04 01:35:25;;;;;;;5.00;1.40;;;;;;;8.30;100.00;102676.44;5030742;28;20025;-80
2023/02/04 01:37:51;;;;;;;2.10;1.15;;;;;;;8.42;100.00;102698.00;5013993;28;20112;-82
2023/02/04 01:40:17;;;;;;;2.66;1.00;;;;;;;8.40;100.00;102691.91;4969352;28;1292559;-82
2023/02/04 01:42:42;;;;;;;4.53;1.35;;;;;;;8.31;100.00;102680.88;5014628;28;20065;-83
2023/02/04 01:45:09;;;;;;;8.35;2.08;;;;;;;8.31;100.00;102688.91;5016911;28;20095;-82
2023/02/04 01:47:35;;;;;;;9.27;1.92;;;;;;;8.31;100.00;102691.59;5015757;28;20026;-81
2023/02/04 01:50:01;;;;;;;3.00;1.13;;;;;;;8.15;100.00;102657.03;5015115;28;20036;-81
2023/02/04 01:52:32;;;;;;;6.15;1.80;;;;;;;8.31;100.00;102683.53;5015423;28;20112;-82
2023/02/04 01:54:58;;;;;;;4.38;1.30;;;;;;;8.30;100.00;102670.25;4998591;28;20468;-82
2023/02/04 01:57:23;;;;;;;2.78;1.05;;;;;;;8.36;100.00;102675.13;5015306;28;20057;-80
2023/02/04 01:59:54;;;;;;;4.88;1.50;;;;;;;8.41;100.00;102674.84;4998487;28;20077;-81
2023/02/04 02:02:39;;;;;;;6.00;1.98;;;;;;;8.40;100.00;102665.94;4982323;28;20093;-81
2023/02/04 02:05:19;;;;;;;3.28;1.48;;;;;;;8.32;100.00;102665.63;4998957;28;20100;-81
2023/02/04 02:07:47;;;;;;;5.88;1.55;;;;;;;8.44;100.00;102688.00;5015699;28;20448;-82
2023/02/04 02:10:15;;;;;;;3.22;1.23;;;;;;;8.46;100.00;102675.34;5015183;28;20510;-81
2023/02/04 02:12:41;;;;;;;2.42;1.60;;;;;;;8.39;100.00;102666.94;5014878;28;20038;-81
2023/02/04 02:15:10;;;;;;;3.85;1.20;;;;;;;8.52;100.00;102680.25;5015078;28;20145;-81
2023/02/04 02:17:35;;;;;;;3.92;1.13;;;;;;;8.53;100.00;102681.97;5015196;28;20125;-82
2023/02/04 02:20:04;;;;;;;2.67;1.08;;;;;;;8.55;100.00;102685.41;5014362;28;20491;-82
2023/02/04 02:22:33;;;;;;;1.42;0.80;;;;;;;8.58;100.00;102693.22;4998920;28;20387;-80
2023/02/04 02:24:59;;;;;;;1.95;1.08;;;;;;;8.54;100.00;102692.56;5031366;28;20488;-82
2023/02/04 02:27:27;;;;;;;1.52;1.00;;;;;;;8.49;100.00;102681.31;5014058;28;20026;-81
2023/02/04 02:29:55;;;;;;;9.70;1.58;;;;;;;8.46;100.00;102680.72;4998577;28;20468;-81
2023/02/04 02:32:21;;;;;;;5.47;2.00;;;;;;;8.38;100.00;102681.25;5014209;28;20026;-81
2023/02/04 02:34:46;;;;;;;6.82;1.63;;;;;;;8.37;100.00;102688.44;4998432;28;20522;-81
2023/02/04 02:37:20;;;;;;;7.82;1.80;;;;;;;8.32;100.00;102695.97;4998540;28;20034;-81
2023/02/04 02:39:46;;;;;;;6.78;1.45;;;;;;;8.32;100.00;102682.56;5030468;28;20109;-82
2023/02/04 02:42:15;;;;;;;3.45;1.13;;;;;;;8.33;100.00;102686.94;4998173;28;20124;-81
2023/02/04 02:44:45;;;;;;;3.60;1.52;;;;;;;8.26;100.00;102669.63;4997985;28;20129;-79
2023/02/04 02:47:15;;;;;;;3.03;1.30;;;;;;;8.32;100.00;102668.31;5014178;28;20103;-79
2023/02/04 02:49:45;;;;;;;1.73;1.15;;;;;;;8.24;100.00;102658.16;4997822;28;20108;-79
2023/02/04 02:52:13;;;;;;;4.28;1.10;;;;;;;8.33;100.00;102668.19;4983147;28;20042;-79
2023/02/04 02:54:42;;;;;;;3.67;1.30;;;;;;;8.40;100.00;102671.31;5014373;28;20036;-81
2023/02/04 02:57:22;;;;;;;2.22;0.98;;;;;;;8.45;100.00;102676.31;5013880;28;20030;-81
2023/02/04 02:59:48;;;;;;;0.60;0.60;;;;;;;8.49;100.00;102677.78;4996473;28;20109;-80
2023/02/04 03:02:16;;;;;;;0.90;0.80;;;;;;;8.49;100.00;102675.97;5013934;28;20504;-79
2023/02/04 03:04:49;;;;;;;10.00;1.58;;;;;;;8.48;100.00;102679.63;5013665;28;20034;-81
2023/02/04 03:07:17;;;;;;;6.80;1.45;;;;;;;8.30;100.00;102655.00;4997782;28;20049;-80
2023/02/04 03:09:46;;;;;;;2.00;1.05;;;;;;;8.33;100.00;102665.50;5013986;28;20065;-80
2023/02/04 03:12:11;;;;;;;4.82;1.25;;;;;;;8.36;100.00;102664.41;4997693;28;20034;-80
2023/02/04 03:14:37;;;;;;;0.73;0.73;;;;;;;8.40;100.00;102663.25;4997015;28;20099;-79
2023/02/04 03:17:08;;;;;;;4.20;1.60;;;;;;;8.42;100.00;102661.31;5013642;28;20026;-79
2023/02/04 03:19:35;;;;;;;2.28;1.13;;;;;;;8.44;100.00;102666.56;5013350;28;20037;-80
2023/02/04 03:22:01;;;;;;;5.30;1.30;;;;;;;8.37;100.00;102656.28;5013851;28;20060;-80
2023/02/04 03:24:29;;;;;;;1.60;0.90;;;;;;;8.40;100.00;102657.06;4997433;28;20081;-80
2023/02/04 03:26:59;;;;;;;1.83;1.38;;;;;;;8.40;100.00;102651.69;4997439;28;20041;-80
2023/02/04 03:29:27;;;;;;;2.88;1.02;;;;;;;8.43;100.00;102660.34;4997579;28;20067;-80
2023/02/04 03:31:54;;;;;;;5.75;1.45;;;;;;;8.44;100.00;102661.19;4996239;28;20083;-80
2023/02/04 03:34:21;;;;;;;3.10;1.15;;;;;;;8.46;100.00;102659.25;5014503;28;20070;-80
2023/02/04 03:36:47;;;;;;;1.20;1.05;;;;;;;8.35;100.00;102643.94;5013451;28;20049;-80
2023/02/04 03:39:12;;;;;;;2.70;1.10;;;;;;;8.42;100.00;102658.66;5012483;28;20384;-80
2023/02/04 03:41:41;;;;;;;3.55;1.42;;;;;;;8.41;100.00;102658.75;5013426;28;20029;-80
2023/02/04 03:44:11;;;;;;;3.30;1.10;;;;;;;8.46;100.00;102653.91;4997378;28;20053;-80
2023/02/04 03:46:37;;;;;;;2.15;1.42;;;;;;;8.46;100.00;102665.47;4980556;28;20034;-80
2023/02/04 03:49:05;;;;;;;4.05;1.60;;;;;;;8.40;100.00;102660.59;4997354;28;20076;-80
2023/02/04 03:51:30;;;;;;;2.80;1.08;;;;;;;8.37;100.00;102650.91;5013407;28;20037;-80
2023/02/04 03:53:56;;;;;;;2.05;1.30;;;;;;;8.38;100.00;102646.41;5013904;28;20384;-81
2023/02/04 03:56:23;;;;;;;3.65;1.30;;;;;;;8.34;100.00;102640.44;5013319;28;20030;-80
2023/02/04 03:58:52;;;;;;;3.40;1.17;;;;;;;8.39;100.00;102640.13;4979662;28;20033;-81
2023/02/04 04:01:18;;;;;;;4.88;1.20;;;;;;;8.37;100.00;102640.19;4997065;28;20405;-80
2023/02/04 04:03:43;;;;;;;5.85;1.75;;;;;;;8.47;100.00;102651.13;5013239;28;20034;-80
2023/02/04 04:06:13;;;;;;;3.90;1.25;;;;;;;8.42;100.00;102655.13;5012390;28;20034;-80
2023/02/04 04:08:42;;;;;;;0.85;0.80;;;;;;;8.37;100.00;102644.69;5013138;28;20038;-79
2023/02/04 04:11:10;;;;;;;1.73;0.90;;;;;;;8.44;100.00;102661.19;4997249;28;20069;-80
2023/02/04 04:13:36;;;;;;;5.07;1.38;;;;;;;8.43;100.00;102659.50;4996456;28;20030;-80
2023/02/04 04:16:03;;;;;;;4.00;1.30;;;;;;;8.40;100.00;102659.72;5012291;28;20032;-80
2023/02/04 04:18:34;;;;;;;4.35;1.17;;;;;;;8.32;100.00;102655.75;4997403;28;20092;-80
2023/02/04 04:21:00;;;;;;;7.95;1.35;;;;;;;8.14;100.00;102627.66;5012620;28;20084;-81
2023/02/04 04:23:28;;;;;;;2.70;1.10;;;;;;;8.31;100.00;102661.25;5012713;28;20041;-80
2023/02/04 04:25:55;;;;;;;9.13;1.73;;;;;;;8.27;100.00;102657.06;5012807;28;20029;-80
2023/02/04 04:28:21;;;;;;;3.80;1.00;;;;;;;8.29;100.00;102665.88;5013396;28;20040;-80
2023/02/04 04:30:50;;;;;;;3.63;1.10;;;;;;;8.24;100.00;102655.47;5012528;28;20108;-80
2023/02/04 04:33:15;;;;;;;5.43;1.85;;;;;;;8.13;100.00;102636.66;5007957;28;20026;-80
2023/02/04 04:35:41;;;;;;;4.22;1.48;;;;;;;8.15;100.00;102653.50;5013817;28;20576;-81
2023/02/04 04:38:08;;;;;;;1.20;1.02;;;;;;;8.23;100.00;102667.19;5012522;28;20464;-82
2023/02/04 04:40:36;;;;;;;3.40;1.30;;;;;;;8.24;100.00;102670.72;4979321;28;20087;-82
2023/02/04 04:43:02;;;;;;;5.63;1.67;;;;;;;8.23;100.00;102667.19;4996626;28;20049;-82
2023/02/04 04:45:28;;;;;;;6.13;1.50;;;;;;;8.25;100.00;102672.41;5012976;28;20037;-82
2023/02/04 04:47:53;;;;;;;0.82;0.80;;;;;;;8.20;100.00;102659.34;4995824;28;20161;-80
2023/02/04 04:50:19;;;;;;;3.17;1.00;;;;;;;8.28;100.00;102659.66;5013900;28;20104;-80
2023/02/04 04:52:45;;;;;;;2.33;1.30;;;;;;;8.23;100.00;102659.13;5012872;28;20045;-80
2023/02/04 04:55:10;;;;;;;2.65;1.13;;;;;;;8.33;100.00;102670.84;5011942;28;20033;-80
2023/02/04 04:57:36;;;;;;;6.53;1.38;;;;;;;8.38;100.00;102683.94;4996260;28;20477;-81
2023/02/04 05:00:06;;;;;;;6.38;1.27;;;;;;;8.36;100.00;102680.50;4996375;28;20038;-80
2023/02/04 05:02:33;;;;;;;5.32;1.70;;;;;;;8.05;100.00;102636.38;5012308;28;20095;-81
2023/02/04 05:04:59;;;;;;;6.90;1.55;;;;;;;8.26;100.00;102671.47;5012266;28;20088;-81
2023/02/04 05:07:24;;;;;;;3.92;1.35;;;;;;;8.30;100.00;102684.50;5012223;28;20026;-80
2023/02/04 05:09:53;;;;;;;5.15;1.15;;;;;;;8.32;100.00;102684.41;5012540;28;20049;-81
2023/02/04 05:12:22;;;;;;;4.03;1.33;;;;;;;8.28;100.00;102670.38;5012437;28;20482;-81
2023/02/04 05:14:47;;;;;;;5.13;1.85;;;;;;;8.13;100.00;102645.56;5012853;28;20456;-80
2023/02/04 05:17:13;;;;;;;4.35;1.35;;;;;;;8.35;100.00;102674.28;5013540;28;20034;-81
2023/02/04 05:19:38;;;;;;;7.65;1.65;;;;;;;8.31;100.00;102667.47;5012790;28;20046;-81
2023/02/04 05:22:04;;;;;;;1.85;1.27;;;;;;;8.20;100.00;102651.31;5013547;28;20368;-81
2023/02/04 05:24:32;;;;;;;5.75;1.65;;;;;;;8.28;100.00;102662.34;5011990;28;20400;-82
2023/02/04 05:26:58;;;;;;;4.47;1.50;;;;;;;8.24;100.00;102666.19;5012393;28;20029;-82
2023/02/04 05:29:23;;;;;;;4.72;1.27;;;;;;;8.15;100.00;102656.19;4996003;28;20092;-81
2023/02/04 05:31:54;;;;;;;2.90;1.27;;;;;;;8.22;100.00;102665.44;4995347;28;20050;-81
2023/02/04 05:34:20;;;;;;;3.85;1.48;;;;;;;8.25;100.00;102667.91;5011972;28;20041;-81
2023/02/04 05:36:46;;;;;;;8.73;1.60;;;;;;;8.19;100.00;102646.91;5012221;28;20034;-81
2023/02/04 05:39:14;;;;;;;5.38;1.40;;;;;;;8.15;100.00;102648.13;5014469;28;20037;-81
2023/02/04 05:41:40;;;;;;;6.15;1.63;;;;;;;8.15;100.00;102653.50;5016846;28;20065;-81
2023/02/04 05:44:06;;;;;;;3.08;1.60;;;;;;;8.25;100.00;102661.69;4999322;28;20492;-81
2023/02/04 05:46:32;;;;;;;5.75;1.38;;;;;;;8.29;100.00;102658.66;5014733;28;20122;-81
2023/02/04 05:49:00;;;;;;;2.88;1.17;;;;;;;8.24;100.00;102643.91;4999473;28;20060;-80
2023/02/04 05:51:26;;;;;;;4.47;1.55;;;;;;;8.26;100.00;102658.06;4999209;28;20445;-82
2023/02/04 05:53:51;;;;;;;4.78;1.52;;;;;;;8.22;100.00;102646.69;4998930;28;20041;-81
2023/02/04 05:56:20;;;;;;;3.53;1.38;;;;;;;8.29;100.00;102661.34;4999714;28;20057;-81
2023/02/04 05:58:46;;;;;;;0.77;0.73;;;;;;;8.25;100.00;102662.53;5015018;28;20069;-81
2023/02/04 06:01:14;;;;;;;6.97;1.38;;;;;;;8.21;100.00;102658.38;5015450;28;20037;-81
2023/02/04 06:03:40;;;;;;;3.17;1.40;;;;;;;8.13;100.00;102658.09;5015451;28;20060;-82
2023/02/04 06:06:05;;;;;;;5.00;1.45;;;;;;;8.09;100.00;102654.78;5015206;28;20054;-81
2023/02/04 06:08:31;;;;;;;2.88;1.20;;;;;;;7.91;100.00;102638.25;4982968;28;20120;-81
2023/02/04 06:10:57;;;;;;;5.30;1.30;;;;;;;7.93;100.00;102638.13;5016215;28;20092;-81
2023/02/04 06:13:25;;;;;;;3.05;0.98;;;;;;;8.12;100.00;102670.66;5014495;28;20030;-82
2023/02/04 06:15:54;;;;;;;1.42;0.80;;;;;;;8.06;100.00;102651.47;5016075;28;20026;-82
2023/02/04 06:18:23;;;;;;;1.92;1.23;;;;;;;8.21;100.00;102669.09;4982450;28;20034;-80
2023/02/04 06:20:48;;;;;;;8.13;1.73;;;;;;;8.13;100.00;102645.56;5014862;28;20126;-82
2023/02/04 06:23:14;;;;;;;2.70;1.02;;;;;;;8.17;100.00;102656.88;4998868;28;20124;-82
2023/02/04 06:25:39;;;;;;;3.58;1.23;;;;;;;8.21;100.00;102662.91;4998696;28;20392;-81
2023/02/04 06:28:05;;;;;;;3.95;1.70;;;;;;;8.10;100.00;102639.59;4998804;28;20460;-82
2023/02/04 06:30:32;;;;;;;5.75;1.08;;;;;;;8.17;100.00;102651.53;5015043;28;20120;-82
2023/02/04 06:33:00;;;;;;;4.93;1.90;;;;;;;8.12;100.00;102635.81;5015127;28;20040;-82
2023/02/04 06:35:28;;;;;;;12.48;3.83;;;;;;;8.14;100.00;102638.38;5014339;28;20030;-81
2023/02/04 06:37:57;;;;;;;2.45;1.08;;;;;;;8.13;100.00;102636.66;4998589;28;20026;-82
2023/02/04 06:40:22;;;;;;;4.75;1.88;;;;;;;8.18;100.00;102645.22;5014782;28;20037;-81
2023/02/04 06:42:48;;;;;;;3.80;1.40;;;;;;;8.07;100.00;102635.31;4998465;28;20050;-81
2023/02/04 06:45:14;;;;;;;1.83;1.33;;;;;;;8.13;100.00;102647.38;5013299;28;20389;-81
2023/02/04 06:47:42;;;;;;;3.15;1.85;;;;;;;8.15;100.00;102650.81;5014569;28;20041;-81
2023/02/04 06:50:09;;;;;;;3.88;1.38;;;;;;;8.06;100.00;102630.91;5013164;28;20030;-82
2023/02/04 06:52:37;;;;;;;4.45;1.40;;;;;;;8.10;100.00;102643.09;4997813;28;20451;-82
2023/02/04 06:55:06;;;;;;;2.00;1.15;;;;;;;8.11;100.00;102649.31;5013942;28;20134;-82
2023/02/04 06:57:32;;;;;;;5.30;1.20;;;;;;;8.10;100.00;102645.78;5013849;28;20105;-81
2023/02/04 06:59:57;;;;;;;3.03;1.23;;;;;;;8.09;100.00;102637.84;5015513;28;20536;-81
2023/02/04 07:02:28;;;;;;;6.88;1.20;;;;;;;8.02;100.00;102629.44;5030810;28;20474;-81
2023/02/04 07:05:00;;;;;;;1.98;1.17;;;;;;;8.18;100.00;102655.94;4997566;28;20041;-80
2023/02/04 07:07:26;;;;;;;2.88;1.40;;;;;;;8.11;100.00;102646.63;5014192;28;20068;-81
2023/02/04 07:10:01;;;;;;;4.22;1.25;;;;;;;8.22;100.00;102667.28;4999393;28;20038;-81
2023/02/04 07:12:27;;;;;;;3.78;1.42;;;;;;;8.20;100.00;102658.50;5013362;28;20037;-81
2023/02/04 07:14:52;;;;;;;7.25;1.92;;;;;;;8.18;100.00;102668.47;5015125;28;20044;-81
2023/02/04 07:17:18;;;;;;;2.92;1.17;;;;;;;8.20;100.00;102661.16;5013095;28;20133;-81
2023/02/04 07:19:47;;;;;;;4.40;2.13;;;;;;;8.17;100.00;102672.13;5014894;28;20033;-81
2023/02/04 07:22:13;;;;;;;5.53;1.70;;;;;;;8.11;100.00;102662.72;5013678;28;20464;-81
2023/02/04 07:24:39;;;;;;;3.03;1.77;;;;;;;8.16;100.00;102673.94;5013887;28;20083;-82
2023/02/04 07:27:05;;;;;;;5.28;2.30;;;;;;;8.11;100.00;102676.97;5015024;28;20029;-82
2023/02/04 07:29:31;;;;;;;5.03;1.75;;;;;;;8.04;100.00;102674.84;5014323;28;20469;-82
2023/02/04 07:31:56;;;;;;;4.03;1.77;;;;;;;7.92;100.00;102684.63;5014185;28;20033;-80
2023/02/04 07:34:23;;;;;;;5.97;2.08;;;;;;;7.71;100.00;102676.31;5013537;28;20041;-82
2023/02/04 07:36:48;;;;;;;5.72;1.75;;;;;;;7.41;100.00;102663.28;5013450;28;20424;-81
2023/02/04 07:39:14;;;;;;;6.75;2.28;;;;;;;7.33;100.00;102700.44;5012978;28;20116;-82
2023/02/04 07:41:40;;;;;;;6.65;2.53;;;;;;;7.09;100.00;102668.22;5013444;28;20476;-82
2023/02/04 07:44:05;;;;;;;4.97;1.45;;;;;;;7.19;100.00;102682.69;4996885;28;20046;-83
2023/02/04 07:46:33;;;;;;;4.45;1.75;;;;;;;7.34;100.00;102686.97;4996652;28;20483;-82
2023/02/04 07:48:59;;;;;;;5.63;1.77;;;;;;;7.43;100.00;102696.16;5013202;28;20030;-82
2023/02/04 07:51:25;;;;;;;12.52;5.55;;;;;;;7.52;100.00;102695.53;4996963;28;20396;-82
2023/02/04 07:53:50;;;;;;;5.40;3.33;;;;;;;7.54;100.00;102704.31;5029378;28;20065;-82
2023/02/04 07:56:16;;;;;;;10.95;3.72;;;;;;;7.42;100.00;102678.41;4996915;28;20034;-81
2023/02/04 07:58:42;;;;;;;3.03;1.60;;;;;;;7.58;100.00;102695.09;5012780;28;20514;-83
2023/02/04 08:01:08;;;;;;;2.45;1.77;;;;;;;7.57;100.00;102688.03;5013856;28;20033;-81
2023/02/04 08:03:33;;;;;;;5.57;1.60;;;;;;;7.66;100.00;102695.41;5013102;28;20026;-82
2023/02/04 08:05:59;;;;;;;3.65;1.90;;;;;;;7.71;100.00;102705.78;5014114;28;20037;-82
2023/02/04 08:08:25;;;;;;;2.83;2.03;;;;;;;7.52;100.00;102682.16;5012776;28;20456;-81
2023/02/04 08:10:51;;;;;;;6.53;1.73;;;;;;;7.67;100.00;102698.91;5012933;28;20117;-83
2023/02/04 08:13:17;;;;;;;4.18;1.38;;;;;;;7.63;100.00;102708.16;5012774;28;20482;-83
2023/02/04 08:15:43;;;;;;;3.17;1.65;;;;;;;7.62;100.00;102706.41;5011459;28;20030;-83
2023/02/04 08:18:09;;;;;;;6.88;2.63;;;;;;;7.58;100.00;102711.16;4995944;28;20044;-83
2023/02/04 08:20:34;;;;;;;5.40;1.90;;;;;;;7.46;100.00;102707.53;4980101;28;20062;-81
2023/02/04 08:23:00;;;;;;;9.48;2.50;;;;;;;7.51;100.00;102727.75;5012721;28;20415;-83
2023/02/04 08:25:27;;;;;;;3.33;1.52;;;;;;;7.44;100.00;102706.78;4996168;28;20061;-83
2023/02/04 08:27:53;;;;;;;1.75;1.27;;;;;;;7.61;100.00;102734.16;5012453;28;20030;-82
2023/02/04 08:30:19;;;;;;;6.25;1.52;;;;;;;7.65;100.00;102733.00;5012467;28;20030;-84
2023/02/04 08:32:44;;;;;;;4.70;1.63;;;;;;;7.63;100.00;102721.53;5029102;28;20538;-82
2023/02/04 08:35:11;;;;;;;4.15;1.80;;;;;;;7.69;100.00;102721.09;5012588;28;20452;-82
2023/02/04 08:37:36;;;;;;;9.80;2.50;;;;;;;7.79;100.00;102730.19;4996413;28;20029;-81
2023/02/04 08:40:02;;;;;;;3.65;1.80;;;;;;;7.97;100.00;102753.97;5011862;28;20100;-81
2023/02/04 08:42:28;;;;;;;5.07;2.05;;;;;;;8.03;100.00;102746.31;4994936;28;20042;-82
2023/02/04 08:44:54;;;;;;;4.72;1.75;;;;;;;8.02;100.00;102749.97;5012503;28;20099;-81
2023/02/04 08:47:22;;;;;;;5.50;1.55;;;;;;;8.13;100.00;102746.53;5012193;28;20452;-81
2023/02/04 08:49:48;;;;;;;5.53;1.40;;;;;;;8.17;100.00;102749.84;5011797;28;20026;-80
2023/02/04 08:52:17;;;;;;;8.50;2.13;;;;;;;8.21;100.00;102752.19;5012430;28;20080;-81
2023/02/04 08:54:43;;;;;;;4.95;2.10;;;;;;;8.24;100.00;102740.38;5012069;28;20092;-81
2023/02/04 08:57:09;;;;;;;7.20;1.58;;;;;;;8.35;100.00;102743.13;5011777;28;20456;-82
2023/02/04 08:59:35;;;;;;;3.60;1.15;;;;;;;8.40;100.00;102737.47;4996077;28;20121;-82
2023/02/04 09:02:02;;;;;;;7.80;1.95;;;;;;;8.50;100.00;102746.56;4996067;28;20059;-83
2023/02/04 09:04:28;;;;;;;2.83;1.10;;;;;;;8.57;100.00;102745.09;4995400;28;20129;-82
2023/02/04 09:06:54;;;;;;;3.80;1.52;;;;;;;8.69;100.00;102754.06;4995579;28;20128;-82
2023/02/04 09:09:20;;;;;;;9.18;1.55;;;;;;;8.75;100.00;102757.13;4995819;28;20129;-83
2023/02/04 09:11:46;;;;;;;3.25;1.23;;;;;;;8.79;100.00;102761.31;5012121;28;20042;-83
2023/02/04 09:14:12;;;;;;;8.23;2.33;;;;;;;8.90;100.00;102765.88;5016198;28;20034;-83
2023/02/04 09:16:38;;;;;;;9.18;2.72;;;;;;;8.92;100.00;102760.41;5016182;28;20056;-82
2023/02/04 09:19:04;;;;;;;20.20;3.92;;;;;;;8.91;100.00;102742.56;5015873;28;20037;-83
2023/02/04 09:21:30;;;;;;;6.47;1.45;;;;;;;9.03;100.00;102757.75;5015871;28;20468;-82
2023/02/04 09:23:56;;;;;;;4.82;2.05;;;;;;;9.17;100.00;102754.84;4999340;28;20084;-82
2023/02/04 09:26:22;;;;;;;4.53;2.00;;;;;;;9.27;100.00;102763.06;5016861;28;20539;-83
2023/02/04 09:28:48;;;;;;;3.65;1.67;;;;;;;9.34;100.00;102764.31;5015793;28;20126;-82
2023/02/04 09:31:14;;;;;;;2.40;1.10;;;;;;;9.42;100.00;102766.38;4998960;28;20044;-83
2023/02/04 09:33:40;;;;;;;9.10;1.83;;;;;;;9.54;100.00;102773.50;4999279;28;20118;-84
2023/02/04 09:36:16;;;;;;;6.88;1.63;;;;;;;9.66;100.00;102766.31;4999288;28;20120;-83
2023/02/04 09:38:52;;;;;;;2.30;1.42;;;;;;;9.72;100.00;102779.25;5014999;28;20054;-83
2023/02/04 09:41:17;;;;;;;3.85;1.30;;;;;;;9.71;100.00;102758.72;5016451;28;20072;-83
2023/02/04 09:43:44;;;;;;;3.03;1.13;;;;;;;9.86;100.00;102778.16;5016489;28;20120;-81
2023/02/04 09:46:21;;;;;;;4.50;1.55;;;;;;;9.97;100.00;102774.63;5015759;28;20029;-77
2023/02/04 09:48:47;;;;;;;4.53;1.60;;;;;;;10.04;100.00;102779.38;4998399;28;20096;-78
2023/02/04 09:51:17;;;;;;;4.30;1.80;;;;;;;10.16;100.00;102774.88;4999603;28;20058;-77
2023/02/04 09:53:43;;;;;;;1.70;1.40;;;;;;;10.34;100.00;102778.75;4982504;28;20128;-77
2023/02/04 09:56:10;;;;;;;3.88;2.35;;;;;;;10.54;100.00;102785.22;4998833;28;20109;-77
2023/02/04 09:58:36;;;;;;;3.42;2.25;;;;;;;10.79;100.00;102797.47;5014981;28;20064;-78
2023/02/04 10:01:18;;;;;;;4.68;2.60;;;;;;;11.02;100.00;102789.34;4998715;28;20065;-77
2023/02/04 10:03:46;;;;;;;1.65;1.15;;;;;;;10.88;100.00;102777.03;4998399;28;20054;-77
2023/02/04 10:06:13;;;;;;;5.65;2.05;;;;;;;10.76;100.00;102780.75;4998808;28;20369;-77
2023/02/04 10:08:40;;;;;;;4.15;1.75;;;;;;;10.91;99.88;102795.63;4998715;28;20057;-76
2023/02/04 10:11:08;;;;;;;3.15;1.30;;;;;;;10.85;99.01;102769.22;4982793;28;20476;-76
2023/02/04 10:13:49;;;;;;;2.25;1.55;;;;;;;10.93;98.24;102785.59;4998835;28;20396;-76
2023/02/04 10:16:17;;;;;;;3.75;2.20;;;;;;;10.98;97.94;102783.38;5014695;28;20165;-78
2023/02/04 10:18:43;;;;;;;5.22;1.92;;;;;;;10.77;98.19;102777.09;4998702;28;20042;-79
2023/02/04 10:21:27;;;;;;;10.77;2.25;;;;;;;10.60;98.78;102788.38;4998062;28;20036;-79
2023/02/04 10:23:55;;;;;;;3.33;1.95;;;;;;;10.41;99.99;102787.19;4998462;28;20475;-78
2023/02/04 10:26:22;;;;;;;3.78;1.17;;;;;;;10.24;100.00;102795.72;4982150;28;20038;-77
2023/02/04 10:28:48;;;;;;;1.45;1.10;;;;;;;10.18;100.00;102791.72;5014206;28;20088;-77
2023/02/04 10:31:36;;;;;;;3.85;1.30;;;;;;;10.09;100.00;102806.75;5014313;28;20115;-77
2023/02/04 10:34:09;;;;;;;8.65;1.25;;;;;;;9.94;100.00;102801.75;4982588;28;20029;-77
2023/02/04 10:36:38;;;;;;;3.17;1.15;;;;;;;9.53;100.00;102758.38;5014691;28;20033;-77
2023/02/04 10:39:23;;;;;;;2.47;1.60;;;;;;;9.82;100.00;102812.50;4998338;28;20468;-77
2023/02/04 10:41:57;;;;;;;2.65;1.45;;;;;;;9.87;100.00;102817.47;5014224;28;20379;-77
2023/02/04 10:44:31;;;;;;;6.43;1.52;;;;;;;10.03;100.00;102823.38;5014718;28;20068;-76
2023/02/04 10:47:07;;;;;;;4.60;1.40;;;;;;;10.02;100.00;102800.16;4998027;28;20038;-77
2023/02/04 10:49:33;;;;;;;4.75;1.13;;;;;;;10.33;100.00;102805.78;4994583;28;20034;-77
2023/02/04 10:51:59;;;;;;;3.22;1.42;;;;;;;10.55;99.39;102803.06;4997832;28;20449;-77
2023/02/04 10:54:30;;;;;;;2.03;1.00;;;;;;;10.44;99.61;102803.09;4997609;28;20080;-77
2023/02/04 10:57:25;;;;;;;2.22;1.42;;;;;;;10.34;100.00;102813.72;5014288;28;20034;-77
2023/02/04 10:59:55;;;;;;;6.07;1.73;;;;;;;10.55;98.94;102812.97;5014021;28;20096;-76
2023/02/04 11:02:45;;;;;;;5.32;1.25;;;;;;;10.90;96.55;102793.03;4997673;28;20026;-76
2023/02/04 11:05:14;;;;;;;3.15;1.10;;;;;;;11.14;94.80;102819.75;5014334;28;20034;-77
2023/02/04 11:07:40;;;;;;;6.38;1.67;;;;;;;11.79;91.49;102823.19;4997922;28;20042;-77
2023/02/04 11:10:12;;;;;;;3.20;1.60;;;;;;;13.36;85.45;102829.75;4997957;28;20086;-77
2023/02/04 11:12:44;;;;;;;2.60;1.10;;;;;;;13.91;76.40;102825.50;4981590;28;20049;-77
2023/02/04 11:15:36;;;;;;;3.88;1.30;;;;;;;12.62;83.26;102832.94;5013348;28;20049;-78
2023/02/04 11:18:10;;;;;;;2.33;1.15;;;;;;;11.90;87.07;102820.44;4997602;28;20038;-78
2023/02/04 11:20:38;;;;;;;;;;;;;;;11.58;89.59;102831.28;5014204;28;20037;-77
2023/02/04 11:23:26;;;;;;;4.65;1.25;;;;;;;11.31;92.15;102838.03;5013333;28;19917;-77
2023/02/04 11:26:06;;;;;;;4.05;1.70;;;;;;;11.19;93.29;102831.88;5013986;28;20113;-77